createdAt,value
2022-10-22T00:01:18.001Z,100540.75
2022-10-22T00:03:45.209Z,100535.69
2022-10-22T00:06:12.045Z,100515.22
2022-10-22T00:08:39.038Z,100456.78
2022-10-22T00:11:18.113Z,100499.50
2022-10-22T00:16:12.928Z,100510.88
2022-10-22T00:18:57.973Z,100468.00
2022-10-22T00:21:25.725Z,100523.81
2022-10-22T00:23:52.354Z,100274.06
2022-10-22T00:26:20.190Z,100466.97
2022-10-22T00:28:46.997Z,100482.38
2022-10-22T00:31:15.697Z,100447.41
2022-10-22T00:33:42.763Z,100520.59
2022-10-22T00:36:09.310Z,100477.84
2022-10-22T00:38:39.128Z,100503.59
2022-10-22T00:41:06.661Z,100416.84
2022-10-22T00:43:33.425Z,100545.25
2022-10-22T00:46:00.290Z,100428.09
2022-10-22T00:48:30.567Z,100418.13
2022-10-22T00:50:59.586Z,100544.25
2022-10-22T00:54:28.411Z,100549.75
2022-10-22T00:56:55.088Z,100542.63
2022-10-22T00:59:22.308Z,100548.75
2022-10-22T01:01:50.386Z,100439.88
2022-10-22T01:04:26.525Z,100324.28
2022-10-22T01:06:53.177Z,100548.00
2022-10-22T01:09:42.276Z,100391.72
2022-10-22T01:12:41.442Z,100525.47
2022-10-22T01:15:08.460Z,100550.28
2022-10-22T01:18:08.262Z,100543.00
2022-10-22T01:20:58.213Z,100447.34
2022-10-22T01:23:36.461Z,100548.50
2022-10-22T01:26:20.675Z,100554.03
2022-10-22T01:28:53.415Z,100546.84
2022-10-22T01:31:23.760Z,100553.53
2022-10-22T01:33:53.533Z,100554.03
2022-10-22T01:36:21.871Z,100557.41
2022-10-22T01:38:51.119Z,100521.25
2022-10-22T01:41:17.972Z,100537.78
2022-10-22T01:43:45.459Z,100466.47
2022-10-22T01:46:16.942Z,100564.78
2022-10-22T01:49:16.194Z,100569.63
2022-10-22T01:52:06.192Z,100565.59
2022-10-22T01:54:44.647Z,100554.09
2022-10-22T01:57:36.740Z,100561.25
2022-10-22T02:00:10.111Z,100522.13
2022-10-22T02:05:37.022Z,100556.50
2022-10-22T02:08:16.060Z,100575.44
2022-10-22T02:10:46.672Z,100543.00
2022-10-22T02:13:18.576Z,100543.44
2022-10-22T02:15:46.957Z,100479.31
2022-10-22T02:18:15.977Z,100558.53
2022-10-22T02:20:43.634Z,100362.31
2022-10-22T02:23:11.718Z,100535.75
2022-10-22T02:25:42.671Z,100550.97
2022-10-22T02:28:20.388Z,100522.88
2022-10-22T02:30:54.302Z,100547.47
2022-10-22T02:33:47.320Z,100542.41
2022-10-22T02:36:16.890Z,100545.63
2022-10-22T02:38:44.596Z,100475.13
2022-10-22T02:41:11.266Z,100536.50
2022-10-22T02:43:58.406Z,100531.50
2022-10-22T02:46:26.033Z,100537.06
2022-10-22T02:48:52.711Z,100539.28
2022-10-22T02:51:27.551Z,100532.31
2022-10-22T02:53:54.191Z,100505.13
2022-10-22T02:56:20.737Z,100534.56
2022-10-22T02:58:47.478Z,100424.41
2022-10-22T03:01:16.131Z,100549.06
2022-10-22T03:03:43.304Z,100549.25
2022-10-22T03:06:10.192Z,100558.25
2022-10-22T03:08:36.738Z,100551.09
2022-10-22T03:11:24.409Z,100552.31
2022-10-22T03:13:51.042Z,100504.81
2022-10-22T03:16:17.991Z,100553.06
2022-10-22T03:18:44.482Z,100549.09
2022-10-22T03:21:53.879Z,100527.47
2022-10-22T03:24:34.737Z,100554.88
2022-10-22T03:27:01.388Z,100533.25
2022-10-22T03:29:32.001Z,100564.22
2022-10-22T03:31:58.665Z,100534.41
2022-10-22T03:34:32.213Z,100404.41
2022-10-22T03:37:02.214Z,100570.47
2022-10-22T03:39:32.194Z,100498.56
2022-10-22T03:42:07.749Z,100579.97
2022-10-22T03:44:37.258Z,100577.44
2022-10-22T03:47:10.424Z,100576.66
2022-10-22T03:49:37.100Z,100576.44
2022-10-22T03:52:14.907Z,100525.88
2022-10-22T03:54:42.575Z,100577.06
2022-10-22T03:57:11.019Z,100587.13
2022-10-22T03:59:39.847Z,100581.97
2022-10-22T04:02:10.190Z,100588.66
2022-10-22T04:04:37.792Z,100595.13
2022-10-22T04:07:06.231Z,100451.13
2022-10-22T04:09:33.759Z,100491.66
2022-10-22T04:12:01.231Z,100633.00
2022-10-22T04:14:27.906Z,100515.50
2022-10-22T04:16:54.709Z,100581.84
2022-10-22T04:19:21.578Z,100596.84
2022-10-22T04:21:48.137Z,100556.47
2022-10-22T04:24:21.027Z,100594.00
2022-10-22T04:26:47.644Z,100487.28
2022-10-22T04:29:22.689Z,100532.03
2022-10-22T04:31:49.640Z,100608.88
2022-10-22T04:34:27.817Z,100580.56
2022-10-22T04:36:54.886Z,100602.66
2022-10-22T04:39:21.534Z,100538.75
2022-10-22T04:41:48.290Z,100524.53
2022-10-22T04:44:23.289Z,100616.25
2022-10-22T04:46:50.265Z,100618.50
2022-10-22T04:49:17.093Z,100619.06
2022-10-22T04:51:43.703Z,100513.16
2022-10-22T04:54:10.300Z,100604.56
2022-10-22T04:56:37.261Z,100612.47
2022-10-22T04:59:07.347Z,100464.50
2022-10-22T05:01:42.829Z,100474.97
2022-10-22T05:04:13.908Z,100607.19
2022-10-22T05:06:40.918Z,100585.53
2022-10-22T05:09:12.361Z,100559.50
2022-10-22T05:11:46.519Z,100609.38
2022-10-22T05:14:13.471Z,100624.31
2022-10-22T05:16:40.715Z,100290.47
2022-10-22T05:19:08.976Z,100605.00
2022-10-22T05:21:37.553Z,100599.75
2022-10-22T05:24:04.855Z,100568.75
2022-10-22T05:26:31.815Z,100610.19
2022-10-22T05:28:58.508Z,100609.72
2022-10-22T05:31:25.656Z,100609.59
2022-10-22T05:33:52.312Z,100608.06
2022-10-22T05:36:23.034Z,100376.22
2022-10-22T05:38:50.520Z,100592.22
2022-10-22T05:41:30.650Z,100618.81
2022-10-22T05:43:59.000Z,100610.78
2022-10-22T05:46:28.715Z,100514.00
2022-10-22T05:49:00.240Z,100507.09
2022-10-22T05:51:28.965Z,100541.94
2022-10-22T05:53:59.390Z,100593.00
2022-10-22T05:56:27.546Z,100625.69
2022-10-22T05:58:54.477Z,100620.44
2022-10-22T06:01:24.581Z,100481.72
2022-10-22T06:03:54.813Z,100615.91
2022-10-22T06:06:46.238Z,100634.13
2022-10-22T06:09:27.724Z,100638.97
2022-10-22T06:11:56.181Z,100614.97
2022-10-22T06:14:25.114Z,100611.34
2022-10-22T06:16:52.385Z,100646.13
2022-10-22T06:19:21.349Z,100625.53
2022-10-22T06:21:48.313Z,100619.94
2022-10-22T06:24:15.973Z,100656.47
2022-10-22T06:26:53.338Z,100618.16
2022-10-22T06:29:20.131Z,100618.06
2022-10-22T06:32:01.207Z,100644.41
2022-10-22T06:34:27.942Z,100621.00
2022-10-22T06:36:58.842Z,100659.97
2022-10-22T06:39:25.356Z,100660.41
2022-10-22T06:41:54.200Z,100517.59
2022-10-22T06:44:21.071Z,100663.00
2022-10-22T06:46:52.516Z,100662.81
2022-10-22T06:49:27.407Z,100667.72
2022-10-22T06:51:54.797Z,100657.81
2022-10-22T06:54:23.040Z,100674.66
2022-10-22T06:56:49.771Z,100672.34
2022-10-22T06:59:16.291Z,100676.84
2022-10-22T07:01:43.371Z,100673.09
2022-10-22T07:05:03.267Z,100678.25
2022-10-22T07:07:29.867Z,100678.44
2022-10-22T07:10:17.196Z,100694.00
2022-10-22T07:12:44.236Z,100703.63
2022-10-22T07:15:17.368Z,100693.94
2022-10-22T07:17:44.134Z,100678.03
2022-10-22T07:20:12.501Z,100701.22
2022-10-22T07:22:39.433Z,100671.50
2022-10-22T07:25:07.281Z,100648.91
2022-10-22T07:27:34.225Z,100714.66
2022-10-22T07:30:01.708Z,100595.38
2022-10-22T07:32:28.627Z,100728.63
2022-10-22T07:34:55.345Z,100724.50
2022-10-22T07:37:22.293Z,100728.56
2022-10-22T07:39:49.972Z,100730.66
2022-10-22T07:42:22.597Z,100730.28
2022-10-22T07:44:49.068Z,100693.28
2022-10-22T07:47:15.963Z,100728.13
2022-10-22T07:49:42.484Z,100735.03
2022-10-22T07:52:09.525Z,100729.69
2022-10-22T07:54:36.076Z,100728.81
2022-10-22T07:57:02.845Z,100742.00
2022-10-22T07:59:29.573Z,100738.19
2022-10-22T08:01:58.345Z,100742.19
2022-10-22T08:04:24.961Z,100654.00
2022-10-22T08:06:51.533Z,100737.06
2022-10-22T08:09:18.175Z,100746.69
2022-10-22T08:11:45.900Z,100745.94
2022-10-22T08:14:12.617Z,100751.50
2022-10-22T08:16:39.664Z,100700.81
2022-10-22T08:19:07.491Z,100755.63
2022-10-22T08:21:34.108Z,100750.56
2022-10-22T08:24:01.861Z,100755.59
2022-10-22T08:26:28.655Z,100718.34
2022-10-22T08:28:55.234Z,100749.66
2022-10-22T08:31:42.329Z,100769.22
2022-10-22T08:34:11.650Z,100738.69
2022-10-22T08:36:38.784Z,100762.28
2022-10-22T08:39:05.432Z,100776.97
2022-10-22T08:41:49.517Z,100766.50
2022-10-22T08:44:39.474Z,100597.38
2022-10-22T08:47:12.033Z,100782.06
2022-10-22T08:49:42.728Z,100750.34
2022-10-22T08:52:22.168Z,100779.84
2022-10-22T08:54:52.071Z,100773.38
2022-10-22T08:57:55.924Z,100781.13
2022-10-22T09:00:46.454Z,100741.56
2022-10-22T09:03:43.282Z,100793.13
2022-10-22T09:13:48.402Z,100333.63
2022-10-22T09:16:19.941Z,100813.81
2022-10-22T09:19:06.087Z,100813.41
2022-10-22T09:22:08.249Z,100697.16
2022-10-22T09:25:02.309Z,100815.97
2022-10-22T09:27:31.671Z,100813.28
2022-10-22T09:30:07.061Z,100786.53
2022-10-22T09:32:33.760Z,100797.19
2022-10-22T09:35:04.308Z,100814.31
2022-10-22T09:37:30.936Z,100717.75
2022-10-22T09:39:59.054Z,100813.41
2022-10-22T09:42:34.945Z,100794.78
2022-10-22T09:45:01.960Z,100781.81
2022-10-22T09:47:43.807Z,100717.19
2022-10-22T09:50:35.706Z,100815.66
2022-10-22T09:53:27.246Z,100723.16
2022-10-22T09:56:28.172Z,100657.38
2022-10-22T09:58:58.409Z,100806.97
2022-10-22T10:01:27.593Z,100809.28
2022-10-22T10:04:15.252Z,100815.38
2022-10-22T10:06:44.344Z,100734.56
2022-10-22T10:09:21.215Z,100783.19
2022-10-22T10:12:04.389Z,100815.81
2022-10-22T10:14:41.460Z,100812.50
2022-10-22T10:17:26.087Z,100687.53
2022-10-22T10:20:29.154Z,100805.75
2022-10-22T10:23:08.671Z,100691.84
2022-10-22T10:26:03.733Z,100687.88
2022-10-22T10:28:33.237Z,100819.09
2022-10-22T10:31:40.168Z,100687.63
2022-10-22T10:34:39.951Z,100796.38
2022-10-22T10:37:19.472Z,100804.09
2022-10-22T10:39:47.467Z,100805.47
2022-10-22T10:42:31.031Z,100801.53
2022-10-22T10:45:13.158Z,100592.34
2022-10-22T10:47:49.194Z,100804.56
2022-10-22T10:50:23.409Z,100803.75
2022-10-22T10:53:38.552Z,100807.84
2022-10-22T10:56:26.367Z,100807.28
2022-10-22T10:59:16.225Z,100767.22
2022-10-22T11:01:57.063Z,100804.72
2022-10-22T11:05:01.405Z,100807.56
2022-10-22T11:08:18.581Z,100809.75
2022-10-22T11:10:50.754Z,100757.34
2022-10-22T11:13:34.350Z,100805.94
2022-10-22T11:16:12.196Z,100828.22
2022-10-22T11:18:58.608Z,100803.56
2022-10-22T11:21:40.715Z,100796.22
2022-10-22T11:24:18.962Z,100800.16
2022-10-22T11:27:05.144Z,100806.34
2022-10-22T11:29:42.500Z,100793.75
2022-10-22T11:32:17.664Z,100784.19
2022-10-22T11:34:50.552Z,100738.25
2022-10-22T11:37:19.262Z,100793.94
2022-10-22T11:39:54.330Z,100671.69
2022-10-22T11:42:30.354Z,100796.72
2022-10-22T11:45:05.208Z,100780.25
2022-10-22T11:47:36.180Z,100751.91
2022-10-22T11:50:23.001Z,100760.09
2022-10-22T11:55:45.946Z,100605.19
2022-10-22T11:58:31.923Z,100786.06
2022-10-22T12:01:03.302Z,100666.28
2022-10-22T12:03:32.868Z,100723.69
2022-10-22T12:06:19.745Z,100784.44
2022-10-22T12:08:57.313Z,100743.41
2022-10-22T12:11:28.524Z,100790.03
2022-10-22T12:14:16.944Z,100610.00
2022-10-22T12:16:56.679Z,100722.34
2022-10-22T12:19:45.008Z,100788.59
2022-10-22T12:22:24.915Z,100674.13
2022-10-22T12:25:01.308Z,100714.78
2022-10-22T12:27:35.839Z,100782.50
2022-10-22T12:30:22.466Z,100792.56
2022-10-22T12:32:53.399Z,100715.38
2022-10-22T12:35:23.882Z,100745.81
2022-10-22T12:37:52.206Z,100771.81
2022-10-22T12:40:25.761Z,100788.16
2022-10-22T12:42:58.103Z,100753.81
2022-10-22T12:45:30.409Z,100778.28
2022-10-22T12:48:23.632Z,100782.91
2022-10-22T12:50:57.111Z,100780.03
2022-10-22T12:53:37.907Z,100763.84
2022-10-22T12:56:11.805Z,100786.00
2022-10-22T12:58:42.024Z,100715.13
2022-10-22T13:01:12.480Z,100790.44
2022-10-22T13:03:50.339Z,100798.97
2022-10-22T13:06:19.994Z,100609.22
2022-10-22T13:09:27.930Z,100810.28
2022-10-22T13:11:59.311Z,100805.38
2022-10-22T13:14:45.913Z,100808.34
2022-10-22T13:17:24.081Z,100808.06
2022-10-22T13:19:53.572Z,100711.69
2022-10-22T13:22:34.149Z,100807.44
2022-10-22T13:25:22.461Z,100774.69
2022-10-22T13:28:01.508Z,100800.16
2022-10-22T13:30:31.752Z,100806.81
2022-10-22T13:33:02.128Z,100786.59
2022-10-22T13:35:32.892Z,100712.59
2022-10-22T13:38:00.254Z,100818.53
2022-10-22T13:40:57.539Z,100815.84
2022-10-22T13:43:25.179Z,100793.66
2022-10-22T13:45:59.242Z,100700.31
2022-10-22T13:48:28.973Z,100729.38
2022-10-22T13:50:56.772Z,100802.66
2022-10-22T13:53:26.768Z,100815.16
2022-10-22T13:56:17.998Z,100821.28
2022-10-22T13:58:50.994Z,100808.34
2022-10-22T14:01:27.208Z,100730.66
2022-10-22T14:03:58.147Z,100753.13
2022-10-22T14:06:28.875Z,100807.28
2022-10-22T14:09:09.083Z,100646.59
2022-10-22T14:11:36.026Z,100806.69
2022-10-22T14:14:08.815Z,100735.75
2022-10-22T14:16:37.988Z,100780.03
2022-10-22T14:19:17.784Z,100811.97
2022-10-22T14:21:45.145Z,100763.59
2022-10-22T14:24:25.972Z,100816.09
2022-10-22T14:26:52.678Z,100815.72
2022-10-22T14:29:23.372Z,100812.13
2022-10-22T14:31:51.314Z,100806.25
2022-10-22T14:34:18.018Z,100722.56
2022-10-22T14:36:45.244Z,100816.97
2022-10-22T14:39:13.442Z,100823.69
2022-10-22T14:41:42.677Z,100814.84
2022-10-22T14:44:12.893Z,100822.25
2022-10-22T14:46:42.658Z,100776.13
2022-10-22T14:49:12.009Z,100819.34
2022-10-22T14:51:39.368Z,100804.56
2022-10-22T14:54:07.653Z,100820.31
2022-10-22T14:56:34.514Z,100819.53
2022-10-22T14:59:01.784Z,100494.72
2022-10-22T15:01:28.773Z,100792.38
2022-10-22T15:04:10.054Z,100777.13
2022-10-22T15:06:37.222Z,100825.63
2022-10-22T15:09:14.373Z,100830.22
2022-10-22T15:11:42.624Z,100827.09
2022-10-22T15:14:09.650Z,100819.22
2022-10-22T15:16:36.149Z,100832.34
2022-10-22T15:19:04.028Z,100835.13
2022-10-22T15:21:30.850Z,100833.75
2022-10-22T15:23:57.864Z,100783.00
2022-10-22T15:26:24.868Z,100835.09
2022-10-22T15:28:55.032Z,100842.34
2022-10-22T15:31:51.670Z,100844.06
2022-10-22T15:34:24.749Z,100842.28
2022-10-22T15:36:52.077Z,100845.41
2022-10-22T15:39:21.071Z,100857.78
2022-10-22T15:41:49.409Z,100836.97
2022-10-22T15:44:25.852Z,100659.38
2022-10-22T15:46:54.871Z,100871.66
2022-10-22T15:49:24.431Z,100760.81
2022-10-22T15:51:52.344Z,100872.00
2022-10-22T15:54:24.365Z,100862.06
2022-10-22T15:56:51.714Z,100857.19
2022-10-22T15:59:18.692Z,100869.66
2022-10-22T16:01:47.023Z,100877.00
2022-10-22T16:04:14.401Z,100885.78
2022-10-22T16:06:52.693Z,100864.47
2022-10-22T16:09:22.576Z,100893.28
2022-10-22T16:11:50.914Z,100831.78
2022-10-22T16:14:20.687Z,100895.09
2022-10-22T16:16:53.692Z,100771.47
2022-10-22T16:19:22.331Z,100893.38
2022-10-22T16:21:52.805Z,100843.16
2022-10-22T16:24:20.852Z,100764.47
2022-10-22T16:26:48.488Z,100900.03
2022-10-22T16:29:15.424Z,100902.56
2022-10-22T16:31:44.105Z,100919.03
2022-10-22T16:34:11.500Z,100906.16
2022-10-22T16:36:44.614Z,100928.41
2022-10-22T16:39:11.636Z,100924.56
2022-10-22T16:41:38.330Z,100917.22
2022-10-22T16:44:07.916Z,100917.28
2022-10-22T16:46:38.577Z,100912.16
2022-10-22T16:49:06.614Z,100922.28
2022-10-22T16:51:35.807Z,100933.31
2022-10-22T16:54:04.545Z,100924.63
2022-10-22T16:56:36.589Z,100925.44
2022-10-22T16:59:05.038Z,100939.78
2022-10-22T17:01:33.225Z,100938.31
2022-10-22T17:04:02.692Z,100943.66
2022-10-22T17:06:29.554Z,100925.81
2022-10-22T17:08:57.593Z,100952.53
2022-10-22T17:11:25.637Z,100901.28
2022-10-22T17:13:54.408Z,100918.56
2022-10-22T17:16:36.219Z,100957.81
2022-10-22T17:19:04.022Z,100938.47
2022-10-22T17:21:37.946Z,100960.53
2022-10-22T17:24:04.695Z,100970.53
2022-10-22T17:26:34.576Z,100951.69
2022-10-22T17:29:01.153Z,100968.66
2022-10-22T17:31:32.798Z,100978.03
2022-10-22T17:34:00.192Z,100965.59
2022-10-22T17:36:34.862Z,100794.75
2022-10-22T17:39:06.666Z,100924.56
2022-10-22T17:41:36.866Z,100996.44
2022-10-22T17:44:06.455Z,100905.91
2022-10-22T17:46:36.157Z,100982.66
2022-10-22T17:49:04.780Z,100999.97
2022-10-22T17:51:32.289Z,100990.22
2022-10-22T17:53:59.322Z,100913.34
2022-10-22T17:56:30.283Z,100964.59
2022-10-22T17:59:00.192Z,100969.59
2022-10-22T18:01:33.630Z,100947.69
2022-10-22T18:04:05.853Z,100987.41
2022-10-22T18:06:33.085Z,100990.47
2022-10-22T18:08:59.784Z,101006.84
2022-10-22T18:11:29.575Z,101009.59
2022-10-22T18:13:58.121Z,100988.13
2022-10-22T18:16:28.373Z,101008.81
2022-10-22T18:18:56.683Z,101005.44
2022-10-22T18:21:26.845Z,101002.31
2022-10-22T18:23:53.828Z,100949.97
2022-10-22T18:26:24.414Z,100887.03
2022-10-22T18:28:53.422Z,101009.81
2022-10-22T18:31:24.071Z,101012.13
2022-10-22T18:33:51.439Z,101015.69
2022-10-22T18:36:20.626Z,101020.84
2022-10-22T18:38:58.467Z,100967.84
2022-10-22T18:41:27.987Z,100906.31
2022-10-22T18:43:57.333Z,101031.03
2022-10-22T18:46:24.257Z,100795.63
2022-10-22T18:48:55.429Z,101024.91
2022-10-22T18:51:24.448Z,101024.47
2022-10-22T18:54:11.244Z,101020.91
2022-10-22T18:56:43.823Z,101031.56
2022-10-22T18:59:20.535Z,100927.19
2022-10-22T19:01:48.034Z,101028.25
2022-10-22T19:04:20.432Z,101017.06
2022-10-22T19:06:47.040Z,101022.38
2022-10-22T19:09:16.117Z,101037.78
2022-10-22T19:11:44.310Z,101023.78
2022-10-22T19:14:12.886Z,101036.28
2022-10-22T19:16:39.379Z,101042.41
2022-10-22T19:19:08.522Z,101039.81
2022-10-22T19:21:39.436Z,101044.25
2022-10-22T19:24:07.437Z,101056.34
2022-10-22T19:26:34.344Z,101050.63
2022-10-22T19:29:01.276Z,101023.78
2022-10-22T19:31:31.340Z,101069.75
2022-10-22T19:33:59.737Z,100965.28
2022-10-22T19:36:30.346Z,101032.84
2022-10-22T19:39:02.013Z,101069.88
2022-10-22T19:41:29.767Z,101073.44
2022-10-22T19:43:58.042Z,101006.78
2022-10-22T19:46:26.058Z,101046.38
2022-10-22T19:48:54.403Z,101078.66
2022-10-22T19:51:23.104Z,101079.34
2022-10-22T19:53:51.329Z,101065.94
2022-10-22T19:56:20.628Z,100963.00
2022-10-22T19:59:01.156Z,101078.06
2022-10-22T20:01:28.551Z,101080.16
2022-10-22T20:03:55.810Z,101098.94
2022-10-22T20:06:22.935Z,101083.53
2022-10-22T20:09:08.287Z,101082.91
2022-10-22T20:11:35.252Z,101060.38
2022-10-22T20:14:02.623Z,101091.53
2022-10-22T20:16:30.248Z,100668.31
2022-10-22T20:19:02.397Z,100982.50
2022-10-22T20:21:29.656Z,101050.03
2022-10-22T20:23:57.526Z,101085.13
2022-10-22T20:26:28.340Z,101086.88
2022-10-22T20:28:57.816Z,101087.72
2022-10-22T20:31:28.720Z,101110.97
2022-10-22T20:33:58.129Z,101086.88
2022-10-22T20:36:33.204Z,101118.88
2022-10-22T20:39:03.220Z,101108.31
2022-10-22T20:41:40.789Z,101133.31
2022-10-22T20:44:13.585Z,101117.56
2022-10-22T20:46:40.219Z,101044.75
2022-10-22T20:49:18.023Z,101110.59
2022-10-22T20:51:45.194Z,101136.00
2022-10-22T20:54:13.860Z,101039.78
2022-10-22T20:56:42.391Z,101137.13
2022-10-22T20:59:13.861Z,101138.25
2022-10-22T21:01:49.101Z,101110.97
2022-10-22T21:04:17.138Z,101149.81
2022-10-22T21:06:52.152Z,101103.53
2022-10-22T21:09:18.899Z,101078.66
2022-10-22T21:11:46.081Z,101136.94
2022-10-22T21:14:15.357Z,101133.41
2022-10-22T21:16:44.479Z,101050.03
2022-10-22T21:19:12.633Z,101025.53
2022-10-22T21:21:39.919Z,101120.56
2022-10-22T21:24:07.461Z,101042.56
2022-10-22T21:26:41.258Z,101051.41
2022-10-22T21:29:09.605Z,101108.53
2022-10-22T21:31:37.605Z,101149.59
2022-10-22T21:34:04.114Z,101136.09
2022-10-22T21:36:31.410Z,101147.91
2022-10-22T21:38:57.946Z,101139.50
2022-10-22T21:41:24.801Z,101143.09
2022-10-22T21:43:52.381Z,101094.97
2022-10-22T21:46:20.169Z,101149.03
2022-10-22T21:48:47.530Z,101087.22
2022-10-22T21:51:20.538Z,101082.13
2022-10-22T21:53:47.602Z,101123.41
2022-10-22T21:56:26.047Z,101141.53
2022-10-22T21:58:53.011Z,101114.69
2022-10-22T22:01:20.012Z,101140.78
2022-10-22T22:03:53.128Z,101019.97
2022-10-22T22:06:23.662Z,101145.19
2022-10-22T22:08:53.377Z,101151.53
2022-10-22T22:11:26.674Z,101147.00
2022-10-22T22:13:55.769Z,101054.53
2022-10-22T22:16:30.437Z,101150.81
2022-10-22T22:18:59.989Z,101152.59
2022-10-22T22:21:27.394Z,101148.97
2022-10-22T22:23:54.313Z,101155.34
2022-10-22T22:26:28.552Z,101156.63
2022-10-22T22:29:01.009Z,100979.19
2022-10-22T22:31:29.406Z,101034.00
2022-10-22T22:34:05.451Z,101038.75
2022-10-22T22:36:38.567Z,101155.50
2022-10-22T22:39:07.294Z,101158.56
2022-10-22T22:41:35.456Z,101149.94
2022-10-22T22:44:02.263Z,101031.00
2022-10-22T22:46:30.127Z,101135.13
2022-10-22T22:48:56.924Z,101158.28
2022-10-22T22:51:24.298Z,101116.00
2022-10-22T22:54:11.191Z,101157.00
2022-10-22T22:56:37.812Z,101154.88
2022-10-22T22:59:06.093Z,101052.72
2022-10-22T23:01:38.013Z,101146.50
2022-10-22T23:04:16.421Z,101158.19
2022-10-22T23:06:43.129Z,101154.38
2022-10-22T23:11:47.946Z,101152.88
2022-10-22T23:14:17.670Z,101156.03
2022-10-22T23:16:49.770Z,101151.88
2022-10-22T23:19:19.083Z,101128.59
2022-10-22T23:22:01.649Z,101029.09
2022-10-22T23:24:29.746Z,101125.38
2022-10-22T23:27:13.840Z,101143.41
2022-10-22T23:29:40.453Z,101151.13
2022-10-22T23:32:16.409Z,101123.19
2022-10-22T23:34:42.986Z,101144.91
2022-10-22T23:37:15.051Z,101124.00
2022-10-22T23:39:41.681Z,101152.66
2022-10-22T23:42:10.620Z,101154.59
2022-10-22T23:44:37.183Z,101141.91
2022-10-22T23:47:03.880Z,101062.28
2022-10-22T23:49:30.450Z,101154.75
2022-10-22T23:51:56.999Z,101105.56
2022-10-22T23:54:23.772Z,101150.91
2022-10-22T23:56:50.369Z,101154.75
2022-10-22T23:59:16.985Z,101155.25
